createdAt,value
2018-10-19T00:01:12.931Z,61.00
2018-10-19T00:03:41.115Z,60.97
2018-10-19T00:06:09.733Z,63.20
2018-10-19T00:08:37.937Z,62.07
2018-10-19T00:11:06.407Z,64.57
2018-10-19T00:13:34.533Z,66.93
2018-10-19T00:16:02.736Z,71.67
2018-10-19T00:18:30.910Z,68.13
2018-10-19T00:20:59.129Z,67.97
2018-10-19T00:23:27.573Z,66.37
2018-10-19T00:25:55.764Z,69.43
2018-10-19T00:28:23.950Z,70.50
2018-10-19T00:30:52.151Z,63.93
2018-10-19T00:33:20.377Z,63.70
2018-10-19T00:35:48.803Z,71.47
2018-10-19T00:38:17.007Z,70.53
2018-10-19T00:40:45.199Z,67.80
2018-10-19T00:43:13.620Z,66.00
2018-10-19T00:45:46.779Z,67.77
2018-10-19T00:48:19.127Z,62.33
2018-10-19T00:50:47.610Z,67.70
2018-10-19T00:53:16.064Z,62.87
2018-10-19T00:55:44.591Z,62.47
2018-10-19T00:58:12.792Z,59.30
2018-10-19T01:00:41.855Z,62.10
2018-10-19T01:03:10.392Z,63.03
2018-10-19T01:05:39.522Z,64.20
2018-10-19T01:08:08.511Z,60.90
2018-10-19T01:10:36.707Z,67.30
2018-10-19T01:13:05.111Z,66.60
2018-10-19T01:15:33.355Z,67.33
2018-10-19T01:18:01.597Z,70.13
2018-10-19T01:20:29.985Z,73.03
2018-10-19T01:22:58.187Z,71.53
2018-10-19T01:25:26.867Z,72.47
2018-10-19T01:27:55.070Z,69.63
2018-10-19T01:30:26.643Z,69.13
2018-10-19T01:32:55.103Z,71.30
2018-10-19T01:35:23.270Z,75.50
2018-10-19T01:37:51.690Z,72.73
2018-10-19T01:40:19.892Z,67.67
2018-10-19T01:42:48.310Z,66.80
2018-10-19T01:45:16.524Z,73.60
2018-10-19T01:47:44.753Z,75.10
2018-10-19T01:50:12.996Z,74.77
2018-10-19T01:52:41.468Z,81.13
2018-10-19T01:55:09.668Z,79.23
2018-10-19T01:57:38.093Z,73.20
2018-10-19T02:00:06.442Z,73.23
2018-10-19T02:02:34.677Z,72.60
2018-10-19T02:05:02.904Z,71.43
2018-10-19T02:07:31.064Z,77.37
2018-10-19T02:09:59.255Z,82.33
2018-10-19T02:12:27.489Z,72.60
2018-10-19T02:14:55.738Z,70.37
2018-10-19T02:17:23.899Z,66.77
2018-10-19T02:19:52.086Z,71.33
2018-10-19T02:22:20.279Z,76.27
2018-10-19T02:24:48.459Z,83.37
2018-10-19T02:27:16.710Z,78.93
2018-10-19T02:29:44.834Z,79.70
2018-10-19T02:32:13.030Z,82.33
2018-10-19T02:34:41.255Z,78.00
2018-10-19T02:37:09.447Z,83.60
2018-10-19T02:39:37.667Z,87.50
2018-10-19T02:42:05.874Z,84.90
2018-10-19T02:44:34.286Z,81.50
2018-10-19T02:47:02.494Z,80.17
2018-10-19T02:49:30.894Z,71.83
2018-10-19T02:51:59.090Z,77.47
2018-10-19T02:54:27.321Z,72.37
2018-10-19T02:56:55.592Z,66.07
2018-10-19T02:59:23.789Z,67.53
2018-10-19T03:01:52.221Z,69.27
2018-10-19T03:04:20.410Z,66.13
2018-10-19T03:06:48.614Z,66.20
2018-10-19T03:09:17.332Z,66.07
2018-10-19T03:11:45.501Z,65.27
2018-10-19T03:14:13.678Z,68.83
2018-10-19T03:16:41.862Z,69.70
2018-10-19T03:19:10.050Z,66.20
2018-10-19T03:21:38.242Z,66.63
2018-10-19T03:24:06.470Z,63.63
2018-10-19T03:26:34.644Z,62.40
2018-10-19T03:29:02.950Z,65.20
2018-10-19T03:31:31.138Z,64.00
2018-10-19T03:33:59.352Z,61.23
2018-10-19T03:36:27.789Z,66.83
2018-10-19T03:38:56.009Z,66.40
2018-10-19T03:41:24.213Z,70.53
2018-10-19T03:43:52.408Z,79.03
2018-10-19T03:46:20.683Z,74.17
2018-10-19T03:48:49.102Z,74.50
2018-10-19T03:51:17.625Z,77.17
2018-10-19T03:53:45.975Z,77.83
2018-10-19T03:56:14.226Z,73.30
2018-10-19T03:58:42.417Z,79.97
2018-10-19T04:01:10.607Z,83.30
2018-10-19T04:03:38.928Z,88.13
2018-10-19T04:06:07.062Z,83.50
2018-10-19T04:08:35.273Z,85.50
2018-10-19T04:11:03.522Z,83.87
2018-10-19T04:13:31.677Z,83.50
2018-10-19T04:15:59.877Z,84.10
2018-10-19T04:18:28.299Z,75.20
2018-10-19T04:20:56.556Z,77.20
2018-10-19T04:23:24.702Z,78.90
2018-10-19T04:25:52.915Z,84.27
2018-10-19T04:28:21.144Z,91.13
2018-10-19T04:30:49.359Z,87.13
2018-10-19T04:33:17.627Z,91.03
2018-10-19T04:35:45.790Z,78.63
2018-10-19T04:38:13.990Z,73.67
2018-10-19T04:40:42.186Z,65.80
2018-10-19T04:43:10.635Z,57.97
2018-10-19T04:45:38.836Z,53.97
2018-10-19T04:48:07.031Z,54.10
2018-10-19T04:50:35.238Z,51.40
2018-10-19T04:53:03.490Z,52.90
2018-10-19T04:55:31.672Z,53.80
2018-10-19T04:58:00.979Z,58.53
2018-10-19T05:00:29.212Z,65.63
2018-10-19T05:02:57.453Z,70.83
2018-10-19T05:05:25.718Z,72.30
2018-10-19T05:07:53.928Z,64.60
2018-10-19T05:10:22.129Z,60.17
2018-10-19T05:12:50.324Z,59.83
2018-10-19T05:15:18.522Z,60.33
2018-10-19T05:17:46.754Z,63.47
2018-10-19T05:20:15.273Z,60.30
2018-10-19T05:22:43.598Z,60.00
2018-10-19T05:25:12.653Z,93.73
2018-10-19T05:27:40.831Z,70.70
2018-10-19T05:30:12.739Z,71.63
2018-10-19T05:32:41.906Z,69.63
2018-10-19T05:35:10.159Z,72.00
2018-10-19T05:37:39.347Z,65.90
2018-10-19T05:40:08.846Z,72.70
2018-10-19T05:42:37.196Z,67.30
2018-10-19T05:45:07.734Z,69.77
2018-10-19T05:47:35.927Z,69.17
2018-10-19T05:50:04.971Z,69.30
2018-10-19T05:52:33.085Z,68.43
2018-10-19T05:55:01.288Z,66.90
2018-10-19T05:57:29.479Z,64.90
2018-10-19T05:59:57.897Z,62.23
2018-10-19T06:02:26.244Z,60.73
2018-10-19T06:04:54.344Z,52.97
2018-10-19T06:07:22.509Z,52.30
2018-10-19T06:09:51.017Z,53.30
2018-10-19T06:12:19.290Z,50.57
2018-10-19T06:14:47.513Z,51.53
2018-10-19T06:17:15.991Z,55.37
2018-10-19T06:19:44.201Z,53.57
2018-10-19T06:22:12.410Z,60.50
2018-10-19T06:24:40.609Z,53.03
2018-10-19T06:27:08.813Z,50.77
2018-10-19T06:29:37.014Z,51.03
2018-10-19T06:32:05.867Z,46.83
2018-10-19T06:34:34.078Z,45.40
2018-10-19T06:37:02.277Z,45.97
2018-10-19T06:39:30.500Z,49.50
2018-10-19T06:41:58.697Z,45.80
2018-10-19T06:44:26.934Z,47.33
2018-10-19T06:46:55.401Z,46.97
2018-10-19T06:49:23.630Z,54.80
2018-10-19T06:51:51.791Z,56.33
2018-10-19T06:54:20.414Z,51.83
2018-10-19T06:56:48.618Z,49.00
2018-10-19T06:59:16.843Z,49.10
2018-10-19T07:01:44.990Z,45.07
2018-10-19T07:04:13.214Z,42.73
2018-10-19T07:06:41.407Z,45.03
2018-10-19T07:09:09.592Z,48.13
2018-10-19T07:11:37.783Z,44.13
2018-10-19T07:14:06.037Z,46.80
2018-10-19T07:16:34.155Z,45.43
2018-10-19T07:19:02.431Z,46.33
2018-10-19T07:21:31.002Z,41.80
2018-10-19T07:23:59.182Z,44.77
2018-10-19T07:26:27.421Z,49.03
2018-10-19T07:28:55.604Z,43.67
2018-10-19T07:31:23.783Z,45.77
2018-10-19T07:33:52.432Z,44.43
2018-10-19T07:36:20.654Z,57.40
2018-10-19T07:38:49.327Z,56.07
2018-10-19T07:41:17.730Z,53.83
2018-10-19T07:43:46.143Z,52.07
2018-10-19T07:46:14.392Z,55.63
2018-10-19T07:48:42.570Z,54.73
2018-10-19T07:51:10.767Z,52.20
2018-10-19T07:53:38.946Z,53.00
2018-10-19T07:56:07.449Z,55.30
2018-10-19T07:58:35.574Z,55.27
2018-10-19T08:01:03.827Z,53.17
2018-10-19T08:03:32.765Z,61.93
2018-10-19T08:06:01.187Z,60.63
2018-10-19T08:08:29.475Z,65.63
2018-10-19T08:10:57.753Z,61.93
2018-10-19T08:13:25.964Z,61.83
2018-10-19T08:15:54.239Z,58.30
2018-10-19T08:18:22.419Z,58.75
2018-10-19T08:20:50.617Z,57.55
2018-10-19T08:23:18.811Z,54.33
2018-10-19T08:25:47.049Z,55.35
2018-10-19T08:28:15.222Z,54.93
2018-10-19T08:30:44.465Z,57.35
2018-10-19T08:33:12.721Z,55.63
2018-10-19T08:35:40.917Z,56.55
2018-10-19T08:38:09.145Z,56.02
2018-10-19T08:40:37.381Z,55.05
2018-10-19T08:43:06.161Z,52.98
2018-10-19T08:45:34.575Z,54.13
2018-10-19T08:48:02.767Z,52.65
2018-10-19T08:50:30.951Z,53.75
2018-10-19T08:52:59.402Z,52.83
2018-10-19T08:55:27.805Z,52.13
2018-10-19T08:57:56.300Z,51.70
2018-10-19T09:00:24.655Z,53.98
2018-10-19T09:02:53.066Z,51.65
2018-10-19T09:05:21.460Z,52.05
2018-10-19T09:07:49.874Z,52.00
2018-10-19T09:10:18.055Z,51.88
2018-10-19T09:12:46.257Z,50.78
2018-10-19T09:15:14.483Z,52.17
2018-10-19T09:17:43.731Z,53.33
2018-10-19T09:20:11.993Z,51.58
2018-10-19T09:22:40.202Z,48.75
2018-10-19T09:25:08.470Z,50.45
2018-10-19T09:27:36.933Z,49.70
2018-10-19T09:30:06.467Z,49.58
2018-10-19T09:32:34.705Z,49.95
2018-10-19T09:35:02.982Z,47.20
2018-10-19T09:37:31.359Z,47.80
2018-10-19T09:39:59.608Z,49.50
2018-10-19T09:42:27.775Z,49.83
2018-10-19T09:44:56.004Z,45.95
2018-10-19T09:47:24.234Z,49.15
2018-10-19T09:49:52.506Z,49.18
2018-10-19T09:52:20.729Z,49.63
2018-10-19T09:54:48.985Z,49.83
2018-10-19T09:57:17.251Z,47.65
2018-10-19T09:59:45.502Z,49.80
2018-10-19T10:02:13.720Z,47.95
2018-10-19T10:04:41.953Z,46.58
2018-10-19T10:07:10.178Z,44.67
2018-10-19T10:09:38.359Z,49.25
2018-10-19T10:12:06.584Z,49.27
2018-10-19T10:14:34.788Z,46.63
2018-10-19T10:17:03.083Z,44.48
2018-10-19T10:19:31.231Z,45.38
2018-10-19T10:21:59.450Z,44.00
2018-10-19T10:24:27.634Z,45.38
2018-10-19T10:26:55.893Z,45.52
2018-10-19T10:29:24.113Z,41.83
2018-10-19T10:31:52.385Z,44.08
2018-10-19T10:34:20.610Z,44.73
2018-10-19T10:36:51.102Z,43.20
2018-10-19T10:39:20.092Z,48.55
2018-10-19T10:41:48.230Z,43.45
2018-10-19T10:44:16.439Z,42.80
2018-10-19T10:46:44.677Z,43.45
2018-10-19T10:49:12.892Z,42.48
2018-10-19T10:51:41.099Z,42.25
2018-10-19T10:54:09.315Z,42.75
2018-10-19T10:56:37.746Z,42.15
2018-10-19T10:59:05.959Z,41.40
2018-10-19T11:01:34.386Z,46.25
2018-10-19T11:04:02.628Z,45.45
2018-10-19T11:06:30.794Z,46.53
2018-10-19T11:08:59.070Z,55.33
2018-10-19T11:11:27.293Z,46.30
2018-10-19T11:13:55.503Z,42.43
2018-10-19T11:16:23.960Z,42.30
2018-10-19T11:18:52.229Z,42.93
2018-10-19T11:21:20.438Z,40.83
2018-10-19T11:23:48.695Z,43.40
2018-10-19T11:26:16.848Z,49.55
2018-10-19T11:28:45.081Z,43.13
2018-10-19T11:31:13.392Z,38.88
2018-10-19T11:33:41.510Z,39.15
2018-10-19T11:36:09.978Z,38.23
2018-10-19T11:38:38.167Z,38.67
2018-10-19T11:41:06.351Z,38.55
2018-10-19T11:43:34.551Z,40.38
2018-10-19T11:46:02.748Z,37.78
2018-10-19T11:48:30.937Z,36.03
2018-10-19T11:50:59.110Z,38.65
2018-10-19T11:53:27.307Z,38.00
2018-10-19T11:55:55.524Z,38.78
2018-10-19T11:58:23.968Z,37.93
2018-10-19T12:00:52.197Z,36.55
2018-10-19T12:03:20.468Z,36.60
2018-10-19T12:05:48.653Z,34.33
2018-10-19T12:08:16.846Z,34.25
2018-10-19T12:10:45.116Z,32.00
2018-10-19T12:13:13.296Z,34.15
2018-10-19T12:15:41.402Z,34.53
2018-10-19T12:18:09.625Z,32.93
2018-10-19T12:20:37.815Z,34.83
2018-10-19T12:23:06.253Z,32.05
2018-10-19T12:25:34.435Z,33.92
2018-10-19T12:28:02.615Z,34.35
2018-10-19T12:30:30.798Z,33.55
2018-10-19T12:32:59.234Z,36.08
2018-10-19T12:35:27.624Z,35.25
2018-10-19T12:37:55.829Z,35.73
2018-10-19T12:40:24.341Z,34.43
2018-10-19T12:42:52.531Z,33.63
2018-10-19T12:46:32.104Z,35.35
2018-10-19T12:49:00.342Z,35.45
2018-10-19T12:51:28.510Z,35.43
2018-10-19T12:53:56.760Z,34.70
2018-10-19T12:56:24.974Z,36.83
2018-10-19T12:58:53.998Z,35.88
2018-10-19T13:01:23.237Z,33.70
2018-10-19T13:03:51.452Z,32.80
2018-10-19T13:06:19.643Z,32.83
2018-10-19T13:08:48.061Z,33.08
2018-10-19T13:11:17.092Z,32.75
2018-10-19T13:13:45.503Z,33.10
2018-10-19T13:16:13.718Z,33.63
2018-10-19T13:18:41.906Z,32.17
2018-10-19T13:21:10.163Z,33.33
2018-10-19T13:23:38.520Z,30.52
2018-10-19T13:26:06.728Z,31.68
2018-10-19T13:28:34.911Z,28.02
2018-10-19T13:31:03.162Z,29.05
2018-10-19T13:33:31.346Z,33.83
2018-10-19T13:36:00.376Z,39.48
2018-10-19T13:38:28.771Z,34.88
2018-10-19T13:40:57.006Z,75.97
2018-10-19T13:43:25.448Z,32.80
2018-10-19T13:45:53.822Z,36.45
2018-10-19T13:48:22.574Z,28.90
2018-10-19T13:50:50.795Z,31.35
2018-10-19T13:53:19.243Z,35.13
2018-10-19T13:55:47.435Z,33.02
2018-10-19T13:58:15.879Z,34.27
2018-10-19T14:00:44.066Z,34.35
2018-10-19T14:03:12.371Z,32.13
2018-10-19T14:05:41.125Z,31.65
2018-10-19T14:08:09.406Z,30.95
2018-10-19T14:10:37.649Z,32.33
2018-10-19T14:13:06.151Z,30.10
2018-10-19T14:15:34.348Z,32.10
2018-10-19T14:18:02.657Z,34.45
2018-10-19T14:20:30.852Z,33.25
2018-10-19T14:22:59.048Z,33.90
2018-10-19T14:25:27.215Z,33.13
2018-10-19T14:27:55.406Z,34.95
2018-10-19T14:30:23.611Z,36.53
2018-10-19T14:32:51.835Z,33.55
2018-10-19T14:35:20.218Z,35.13
2018-10-19T14:37:48.385Z,36.75
2018-10-19T14:40:18.269Z,38.08
2018-10-19T14:42:46.989Z,32.63
2018-10-19T14:45:15.992Z,33.85
2018-10-19T14:47:45.094Z,35.83
2018-10-19T14:50:14.629Z,34.03
2018-10-19T14:52:42.811Z,31.70
2018-10-19T14:55:12.874Z,33.25
2018-10-19T14:57:41.078Z,32.90
2018-10-19T15:00:11.796Z,36.17
2018-10-19T15:02:40.003Z,33.42
2018-10-19T15:05:09.857Z,32.15
2018-10-19T15:07:38.397Z,31.62
2018-10-19T15:10:10.013Z,30.77
2018-10-19T15:12:38.433Z,29.65
2018-10-19T15:15:06.898Z,33.45
2018-10-19T15:17:35.047Z,31.57
2018-10-19T15:20:03.689Z,30.80
2018-10-19T15:22:31.907Z,32.80
2018-10-19T15:25:00.239Z,35.30
2018-10-19T15:27:28.446Z,32.03
2018-10-19T15:29:56.878Z,30.40
2018-10-19T15:32:25.109Z,32.13
2018-10-19T15:34:54.157Z,30.57
2018-10-19T15:37:22.504Z,34.90
2018-10-19T15:39:50.732Z,33.48
2018-10-19T15:42:18.957Z,30.17
2018-10-19T15:44:47.272Z,31.65
2018-10-19T15:47:15.481Z,30.55
2018-10-19T15:49:43.667Z,31.40
2018-10-19T15:52:11.864Z,29.10
2018-10-19T15:54:40.047Z,28.10
2018-10-19T15:57:08.263Z,28.32
2018-10-19T15:59:36.638Z,29.20
2018-10-19T16:02:05.054Z,28.95
2018-10-19T16:04:33.491Z,29.07
2018-10-19T16:07:01.690Z,29.92
2018-10-19T16:09:30.111Z,30.08
2018-10-19T16:11:58.353Z,30.62
2018-10-19T16:14:26.551Z,30.40
2018-10-19T16:16:54.731Z,28.70
2018-10-19T16:19:22.929Z,29.18
2018-10-19T16:21:51.120Z,32.70
2018-10-19T16:24:19.359Z,31.97
2018-10-19T16:26:47.551Z,32.60
2018-10-19T16:29:15.862Z,31.17
2018-10-19T16:31:44.096Z,33.07
2018-10-19T16:34:12.271Z,32.23
2018-10-19T16:36:40.494Z,35.17
2018-10-19T16:39:09.620Z,35.23
2018-10-19T16:41:37.755Z,35.43
2018-10-19T16:44:05.963Z,37.00
2018-10-19T16:46:34.371Z,38.47
2018-10-19T16:49:02.567Z,37.70
2018-10-19T16:51:30.760Z,39.10
2018-10-19T16:53:59.019Z,42.00
2018-10-19T16:56:27.243Z,40.35
2018-10-19T16:58:55.711Z,39.23
2018-10-19T17:01:24.067Z,42.40
2018-10-19T17:03:52.243Z,43.40
2018-10-19T17:06:20.435Z,52.53
2018-10-19T17:08:48.613Z,52.90
2018-10-19T17:11:17.030Z,54.67
2018-10-19T17:13:45.218Z,56.33
2018-10-19T17:16:13.623Z,54.17
2018-10-19T17:18:41.806Z,59.57
2018-10-19T17:21:10.052Z,54.33
2018-10-19T17:23:38.203Z,56.90
2018-10-19T17:26:06.943Z,55.53
2018-10-19T17:28:35.135Z,53.40
2018-10-19T17:31:03.496Z,54.23
2018-10-19T17:33:31.671Z,52.63
2018-10-19T17:35:59.978Z,47.83
2018-10-19T17:38:28.186Z,46.93
2018-10-19T17:40:56.419Z,43.33
2018-10-19T17:43:24.983Z,46.40
2018-10-19T17:45:53.322Z,41.73
2018-10-19T17:48:21.726Z,44.00
2018-10-19T17:50:49.961Z,44.73
2018-10-19T17:53:18.147Z,44.63
2018-10-19T17:55:46.321Z,43.33
2018-10-19T17:58:14.499Z,44.77
2018-10-19T18:00:42.946Z,43.33
2018-10-19T18:03:11.210Z,43.13
2018-10-19T18:05:39.306Z,41.90
2018-10-19T18:08:07.478Z,41.60
2018-10-19T18:10:35.659Z,43.23
2018-10-19T18:13:04.550Z,42.83
2018-10-19T18:15:32.816Z,43.37
2018-10-19T18:18:01.174Z,45.23
2018-10-19T18:20:29.356Z,59.20
2018-10-19T18:22:57.570Z,53.30
2018-10-19T18:25:25.938Z,52.50
2018-10-19T18:27:54.160Z,51.07
2018-10-19T18:30:22.330Z,52.43
2018-10-19T18:32:50.548Z,51.53
2018-10-19T18:35:18.756Z,49.93
2018-10-19T18:37:46.907Z,48.63
2018-10-19T18:40:15.290Z,49.83
2018-10-19T18:42:43.476Z,49.37
2018-10-19T18:45:11.875Z,49.60
2018-10-19T18:47:40.097Z,49.60
2018-10-19T18:50:08.900Z,51.73
2018-10-19T18:52:37.483Z,48.57
2018-10-19T18:55:05.742Z,50.37
2018-10-19T18:57:34.137Z,47.97
2018-10-19T19:00:02.318Z,48.80
2018-10-19T19:02:30.544Z,45.77
2018-10-19T19:04:58.969Z,47.97
2018-10-19T19:07:27.363Z,44.57
2018-10-19T19:10:00.882Z,44.47
2018-10-19T19:12:29.322Z,46.37
2018-10-19T19:14:57.486Z,47.80
2018-10-19T19:17:25.709Z,45.80
2018-10-19T19:19:59.063Z,53.33
2018-10-19T19:22:27.280Z,56.47
2018-10-19T19:25:01.052Z,62.47
2018-10-19T19:27:29.513Z,57.47
2018-10-19T19:29:57.693Z,57.63
2018-10-19T19:32:25.909Z,52.80
2018-10-19T19:34:54.125Z,53.00
2018-10-19T19:37:22.306Z,51.63
2018-10-19T19:39:50.474Z,51.37
2018-10-19T19:42:23.975Z,46.47
2018-10-19T19:44:52.146Z,48.03
2018-10-19T19:47:25.733Z,48.87
2018-10-19T19:49:58.207Z,46.60
2018-10-19T19:52:26.437Z,50.40
2018-10-19T19:54:54.614Z,48.30
2018-10-19T19:57:22.871Z,52.43
2018-10-19T19:59:51.311Z,49.50
2018-10-19T20:02:19.815Z,53.27
2018-10-19T20:04:48.024Z,54.00
2018-10-19T20:07:16.301Z,57.30
2018-10-19T20:09:44.599Z,56.47
2018-10-19T20:12:12.849Z,55.17
2018-10-19T20:14:41.037Z,59.47
2018-10-19T20:17:09.248Z,65.37
2018-10-19T20:19:37.391Z,65.37
2018-10-19T20:22:05.766Z,63.13
2018-10-19T20:24:34.267Z,59.93
2018-10-19T20:27:02.489Z,59.73
2018-10-19T20:29:30.804Z,61.27
2018-10-19T20:31:59.145Z,59.57
2018-10-19T20:34:27.465Z,55.03
2018-10-19T20:36:55.646Z,61.47
2018-10-19T20:39:23.886Z,64.97
2018-10-19T20:41:52.117Z,60.97
2018-10-19T20:44:20.316Z,67.97
2018-10-19T20:46:48.533Z,70.07
2018-10-19T20:49:16.754Z,65.53
2018-10-19T20:51:44.939Z,57.43
2018-10-19T20:54:13.176Z,58.00
2018-10-19T20:56:41.566Z,66.80
2018-10-19T20:59:09.834Z,61.97
2018-10-19T21:01:37.977Z,61.20
2018-10-19T21:04:06.342Z,61.60
2018-10-19T21:06:34.527Z,54.83
2018-10-19T21:09:02.758Z,54.37
2018-10-19T21:11:31.147Z,57.90
2018-10-19T21:13:59.379Z,55.47
2018-10-19T21:16:27.554Z,54.53
2018-10-19T21:18:55.830Z,54.07
2018-10-19T21:21:23.922Z,53.70
2018-10-19T21:23:52.111Z,56.60
2018-10-19T21:26:20.481Z,58.40
2018-10-19T21:28:48.670Z,57.20
2018-10-19T21:31:16.881Z,62.60
2018-10-19T21:33:45.067Z,63.20
2018-10-19T21:36:13.353Z,61.60
2018-10-19T21:38:41.511Z,63.43
2018-10-19T21:41:09.840Z,62.83
2018-10-19T21:43:37.950Z,56.57
2018-10-19T21:46:06.425Z,71.40
2018-10-19T21:48:34.846Z,62.23
2018-10-19T21:51:03.073Z,62.60
2018-10-19T21:53:31.250Z,63.00
2018-10-19T21:55:59.483Z,60.27
2018-10-19T21:58:27.854Z,62.93
2018-10-19T22:00:56.051Z,61.77
2018-10-19T22:03:24.234Z,61.93
2018-10-19T22:05:52.647Z,65.43
2018-10-19T22:08:20.840Z,65.80
2018-10-19T22:10:49.455Z,62.17
2018-10-19T22:13:17.655Z,59.00
2018-10-19T22:15:45.839Z,57.23
2018-10-19T22:18:14.233Z,56.13
2018-10-19T22:20:42.643Z,55.50
2018-10-19T22:23:11.091Z,52.07
2018-10-19T22:25:39.454Z,52.57
2018-10-19T22:28:07.636Z,49.97
2018-10-19T22:30:35.835Z,51.17
2018-10-19T22:33:04.031Z,50.77
2018-10-19T22:35:32.489Z,51.60
2018-10-19T22:38:00.655Z,50.00
2018-10-19T22:40:28.881Z,51.43
2018-10-19T22:42:57.065Z,52.67
2018-10-19T22:45:25.250Z,49.03
2018-10-19T22:47:53.487Z,47.90
2018-10-19T22:50:21.919Z,53.17
2018-10-19T22:52:50.097Z,51.73
2018-10-19T22:55:18.561Z,52.27
2018-10-19T22:57:46.726Z,54.53
2018-10-19T23:00:15.121Z,52.87
2018-10-19T23:02:43.515Z,51.73
2018-10-19T23:05:11.841Z,53.87
2018-10-19T23:07:39.971Z,57.47
2018-10-19T23:10:08.672Z,56.67
2018-10-19T23:12:36.886Z,54.17
2018-10-19T23:15:05.687Z,55.20
2018-10-19T23:17:33.881Z,53.17
2018-10-19T23:20:02.090Z,56.73
2018-10-19T23:22:30.252Z,54.83
2018-10-19T23:24:58.446Z,59.00
2018-10-19T23:27:26.574Z,57.50
2018-10-19T23:29:55.145Z,57.70
2018-10-19T23:32:23.302Z,62.83
2018-10-19T23:34:51.463Z,59.47
2018-10-19T23:37:19.626Z,60.87
2018-10-19T23:39:47.996Z,66.57
2018-10-19T23:42:16.161Z,60.43
2018-10-19T23:44:44.310Z,62.47
2018-10-19T23:47:12.544Z,59.13
2018-10-19T23:49:40.610Z,63.67
2018-10-19T23:52:08.767Z,64.67
2018-10-19T23:54:36.916Z,69.30
2018-10-19T23:57:05.115Z,67.97
2018-10-19T23:59:33.270Z,134.40
